createdAt,value
2018-09-05T00:02:04.069Z,16.42
2018-09-05T00:04:34.419Z,16.34
2018-09-05T00:07:04.819Z,16.25
2018-09-05T00:09:35.188Z,16.23
2018-09-05T00:12:05.559Z,16.17
2018-09-05T00:14:35.925Z,16.11
2018-09-05T00:17:06.465Z,16.02
2018-09-05T00:19:36.968Z,16.07
2018-09-05T00:22:07.309Z,15.92
2018-09-05T00:24:37.595Z,16.00
2018-09-05T00:27:08.091Z,16.04
2018-09-05T00:29:38.597Z,16.12
2018-09-05T00:32:09.055Z,16.15
2018-09-05T00:34:39.316Z,16.18
2018-09-05T00:37:09.697Z,16.08
2018-09-05T00:39:40.004Z,15.90
2018-09-05T00:42:10.369Z,15.84
2018-09-05T00:44:40.753Z,15.75
2018-09-05T00:47:11.116Z,15.63
2018-09-05T00:49:41.557Z,15.52
2018-09-05T00:52:12.059Z,15.62
2018-09-05T00:54:42.317Z,15.81
2018-09-05T00:57:12.580Z,15.67
2018-09-05T00:59:43.090Z,15.62
2018-09-05T01:02:13.478Z,15.55
2018-09-05T01:04:43.780Z,15.67
2018-09-05T01:07:25.726Z,15.58
2018-09-05T01:09:56.224Z,15.54
2018-09-05T01:12:26.751Z,15.35
2018-09-05T01:14:57.060Z,15.45
2018-09-05T01:17:27.438Z,15.41
2018-09-05T01:19:57.873Z,15.51
2018-09-05T01:22:28.044Z,15.65
2018-09-05T01:24:58.517Z,15.73
2018-09-05T01:27:28.837Z,15.63
2018-09-05T01:29:59.064Z,15.37
2018-09-05T01:32:29.568Z,15.34
2018-09-05T01:34:59.997Z,15.42
2018-09-05T01:37:30.388Z,15.46
2018-09-05T01:40:00.760Z,15.54
2018-09-05T01:42:31.233Z,15.47
2018-09-05T01:45:01.614Z,15.34
2018-09-05T01:47:32.206Z,15.20
2018-09-05T01:50:02.609Z,15.20
2018-09-05T01:52:32.856Z,15.01
2018-09-05T01:55:03.136Z,14.83
2018-09-05T01:57:35.360Z,15.09
2018-09-05T02:00:05.962Z,15.05
2018-09-05T02:02:36.304Z,14.83
2018-09-05T02:05:06.850Z,14.79
2018-09-05T02:07:37.155Z,14.68
2018-09-05T02:10:07.635Z,14.58
2018-09-05T02:12:38.033Z,14.74
2018-09-05T02:15:09.513Z,14.79
2018-09-05T02:17:39.810Z,14.76
2018-09-05T02:20:10.030Z,14.72
2018-09-05T02:22:40.352Z,14.66
2018-09-05T02:25:10.815Z,14.68
2018-09-05T02:27:41.451Z,14.53
2018-09-05T02:30:11.944Z,14.47
2018-09-05T02:32:42.408Z,14.39
2018-09-05T02:35:13.003Z,14.30
2018-09-05T02:37:43.716Z,14.30
2018-09-05T02:40:14.320Z,14.36
2018-09-05T02:42:44.831Z,14.56
2018-09-05T02:45:15.288Z,14.64
2018-09-05T02:47:45.862Z,14.61
2018-09-05T02:50:16.345Z,14.50
2018-09-05T02:52:46.775Z,14.57
2018-09-05T02:55:22.007Z,14.52
2018-09-05T02:57:52.560Z,14.60
2018-09-05T03:00:22.943Z,14.55
2018-09-05T03:02:53.448Z,14.51
2018-09-05T03:05:24.001Z,14.47
2018-09-05T03:07:54.407Z,14.34
2018-09-05T03:10:24.983Z,14.34
2018-09-05T03:12:55.471Z,14.20
2018-09-05T03:15:25.854Z,14.36
2018-09-05T03:17:56.368Z,14.22
2018-09-05T03:20:26.584Z,14.10
2018-09-05T03:22:56.985Z,14.23
2018-09-05T03:25:27.287Z,14.17
2018-09-05T03:27:57.693Z,14.22
2018-09-05T03:30:28.031Z,14.17
2018-09-05T03:32:58.520Z,14.10
2018-09-05T03:35:29.148Z,14.17
2018-09-05T03:37:59.540Z,14.18
2018-09-05T03:40:29.907Z,14.09
2018-09-05T03:43:00.189Z,14.14
2018-09-05T03:45:30.624Z,14.03
2018-09-05T03:48:00.941Z,14.13
2018-09-05T03:50:31.511Z,14.00
2018-09-05T03:53:01.909Z,13.88
2018-09-05T03:55:32.161Z,13.87
2018-09-05T03:58:02.552Z,13.73
2018-09-05T04:00:34.545Z,13.82
2018-09-05T04:03:05.724Z,13.70
2018-09-05T04:05:36.122Z,13.81
2018-09-05T04:08:06.640Z,13.82
2018-09-05T04:10:37.055Z,13.73
2018-09-05T04:13:07.378Z,13.63
2018-09-05T04:15:37.947Z,13.58
2018-09-05T04:18:08.351Z,13.50
2018-09-05T04:20:38.736Z,13.40
2018-09-05T04:23:09.172Z,13.43
2018-09-05T04:25:39.585Z,13.36
2018-09-05T04:28:10.048Z,13.21
2018-09-05T04:30:40.505Z,13.23
2018-09-05T04:33:10.862Z,13.32
2018-09-05T04:35:41.244Z,13.25
2018-09-05T04:38:11.495Z,13.34
2018-09-05T04:40:41.827Z,13.40
2018-09-05T04:43:12.049Z,13.52
2018-09-05T04:45:42.561Z,13.51
2018-09-05T04:48:13.047Z,13.35
2018-09-05T04:50:43.554Z,13.51
2018-09-05T04:53:13.961Z,13.47
2018-09-05T04:55:44.289Z,13.64
2018-09-05T04:58:14.746Z,13.79
2018-09-05T05:00:45.038Z,13.75
2018-09-05T05:03:15.706Z,13.77
2018-09-05T05:05:46.152Z,13.67
2018-09-05T05:08:16.376Z,13.76
2018-09-05T05:10:46.697Z,13.75
2018-09-05T05:13:17.045Z,13.70
2018-09-05T05:15:47.544Z,13.76
2018-09-05T05:18:17.928Z,13.92
2018-09-05T05:20:48.286Z,14.06
2018-09-05T05:23:18.640Z,14.45
2018-09-05T05:25:49.167Z,15.12
2018-09-05T05:28:19.747Z,16.00
2018-09-05T05:30:50.335Z,15.66
2018-09-05T05:33:20.700Z,15.19
2018-09-05T05:35:51.202Z,14.95
2018-09-05T05:38:21.912Z,14.65
2018-09-05T05:40:52.532Z,14.57
2018-09-05T05:43:23.094Z,14.61
2018-09-05T05:45:53.536Z,14.57
2018-09-05T05:48:23.892Z,14.37
2018-09-05T05:50:54.077Z,14.14
2018-09-05T05:53:24.562Z,14.25
2018-09-05T05:55:55.047Z,14.29
2018-09-05T05:58:25.536Z,14.21
2018-09-05T06:00:56.115Z,14.21
2018-09-05T06:03:26.495Z,14.34
2018-09-05T06:05:56.908Z,14.35
2018-09-05T06:08:27.225Z,14.34
2018-09-05T06:10:57.541Z,14.10
2018-09-05T06:13:27.999Z,14.27
2018-09-05T06:15:58.304Z,14.36
2018-09-05T06:18:28.588Z,13.99
2018-09-05T06:20:58.993Z,14.22
2018-09-05T06:23:29.487Z,13.99
2018-09-05T06:25:59.943Z,14.03
2018-09-05T06:28:30.155Z,14.21
2018-09-05T06:31:00.661Z,14.37
2018-09-05T06:33:31.108Z,14.27
2018-09-05T06:36:01.621Z,14.34
2018-09-05T06:38:32.125Z,14.33
2018-09-05T06:41:02.468Z,14.28
2018-09-05T06:43:33.017Z,14.61
2018-09-05T06:46:03.552Z,14.56
2018-09-05T06:48:34.028Z,14.93
2018-09-05T06:51:06.989Z,14.99
2018-09-05T06:53:38.856Z,14.95
2018-09-05T06:56:09.384Z,14.87
2018-09-05T06:58:39.916Z,14.66
2018-09-05T07:01:10.350Z,14.73
2018-09-05T07:03:40.760Z,14.77
2018-09-05T07:06:11.016Z,15.00
2018-09-05T07:08:41.327Z,15.05
2018-09-05T07:11:11.777Z,15.06
2018-09-05T07:13:42.192Z,14.96
2018-09-05T07:16:12.754Z,14.90
2018-09-05T07:18:43.099Z,14.70
2018-09-05T07:21:13.759Z,14.99
2018-09-05T07:23:44.124Z,14.80
2018-09-05T07:26:14.366Z,14.98
2018-09-05T07:28:44.650Z,15.17
2018-09-05T07:31:15.237Z,15.28
2018-09-05T07:33:45.631Z,15.20
2018-09-05T07:36:16.228Z,15.13
2018-09-05T07:38:46.708Z,15.18
2018-09-05T07:41:17.031Z,15.03
2018-09-05T07:43:47.464Z,15.16
2018-09-05T07:46:18.048Z,14.97
2018-09-05T07:48:48.545Z,15.01
2018-09-05T07:51:18.895Z,15.29
2018-09-05T07:53:49.376Z,15.55
2018-09-05T07:56:19.900Z,15.73
2018-09-05T07:58:50.292Z,15.94
2018-09-05T08:01:20.892Z,15.94
2018-09-05T08:03:51.361Z,16.02
2018-09-05T08:06:21.963Z,16.08
2018-09-05T08:08:52.636Z,16.32
2018-09-05T08:11:23.021Z,16.01
2018-09-05T08:13:53.348Z,16.47
2018-09-05T08:16:23.972Z,16.60
2018-09-05T08:18:54.565Z,16.66
2018-09-05T08:21:25.104Z,16.65
2018-09-05T08:23:55.584Z,16.37
2018-09-05T08:26:26.017Z,16.29
2018-09-05T08:28:56.466Z,16.31
2018-09-05T08:31:26.850Z,16.53
2018-09-05T08:33:57.421Z,16.36
2018-09-05T08:36:28.003Z,16.41
2018-09-05T08:38:58.451Z,16.35
2018-09-05T08:41:29.005Z,16.69
2018-09-05T08:43:59.445Z,16.64
2018-09-05T08:46:29.699Z,16.71
2018-09-05T08:49:00.106Z,16.98
2018-09-05T08:51:30.580Z,17.26
2018-09-05T08:54:01.236Z,17.43
2018-09-05T08:56:31.512Z,17.51
2018-09-05T08:59:01.903Z,17.09
2018-09-05T09:01:32.239Z,17.66
2018-09-05T09:04:02.725Z,17.92
2018-09-05T09:06:33.110Z,18.00
2018-09-05T09:09:03.448Z,17.61
2018-09-05T09:11:33.823Z,18.29
2018-09-05T09:14:04.439Z,18.60
2018-09-05T09:16:35.016Z,18.74
2018-09-05T09:19:05.572Z,19.09
2018-09-05T09:21:35.767Z,19.25
2018-09-05T09:24:06.511Z,20.11
2018-09-05T09:26:39.210Z,20.78
2018-09-05T09:29:09.521Z,20.14
2018-09-05T09:31:39.981Z,19.89
2018-09-05T09:34:10.406Z,19.82
2018-09-05T09:36:40.779Z,19.85
2018-09-05T09:39:11.964Z,20.07
2018-09-05T09:41:42.466Z,20.06
2018-09-05T09:44:12.740Z,20.41
2018-09-05T09:46:43.291Z,20.40
2018-09-05T09:49:13.573Z,20.07
2018-09-05T09:51:44.033Z,20.63
2018-09-05T09:54:14.420Z,20.92
2018-09-05T09:56:44.982Z,21.32
2018-09-05T09:59:15.588Z,21.52
2018-09-05T10:01:50.916Z,21.22
2018-09-05T10:04:26.423Z,21.59
2018-09-05T10:07:01.820Z,21.93
2018-09-05T10:09:37.192Z,22.30
2018-09-05T10:12:13.163Z,22.27
2018-09-05T10:14:48.667Z,22.38
2018-09-05T10:17:24.131Z,21.96
2018-09-05T10:19:57.223Z,22.24
2018-09-05T10:22:28.086Z,22.39
2018-09-05T10:24:58.673Z,22.44
2018-09-05T10:27:29.752Z,22.74
2018-09-05T10:30:00.191Z,22.18
2018-09-05T10:32:30.688Z,22.09
2018-09-05T10:35:01.041Z,22.31
2018-09-05T10:37:31.477Z,22.47
2018-09-05T10:40:01.804Z,22.83
2018-09-05T10:42:32.408Z,22.78
2018-09-05T10:45:02.924Z,22.61
2018-09-05T10:47:33.172Z,22.96
2018-09-05T10:50:03.795Z,23.07
2018-09-05T10:52:34.161Z,23.01
2018-09-05T10:55:04.676Z,23.14
2018-09-05T10:57:35.130Z,23.35
2018-09-05T11:00:05.504Z,23.14
2018-09-05T11:02:35.913Z,23.39
2018-09-05T11:05:06.317Z,23.39
2018-09-05T11:07:36.640Z,23.37
2018-09-05T11:10:07.225Z,23.54
2018-09-05T11:12:37.750Z,23.84
2018-09-05T11:15:08.373Z,23.73
2018-09-05T11:17:38.862Z,23.82
2018-09-05T11:20:11.044Z,23.69
2018-09-05T11:22:41.846Z,23.98
2018-09-05T11:25:12.380Z,23.73
2018-09-05T11:27:42.729Z,24.10
2018-09-05T11:30:13.010Z,24.19
2018-09-05T11:32:43.211Z,24.07
2018-09-05T11:35:13.517Z,24.46
2018-09-05T11:37:43.896Z,24.28
2018-09-05T11:40:14.323Z,24.21
2018-09-05T11:42:44.652Z,24.35
2018-09-05T11:45:15.175Z,24.53
2018-09-05T11:47:45.348Z,24.69
2018-09-05T11:50:15.836Z,24.95
2018-09-05T11:52:46.304Z,24.72
2018-09-05T11:55:16.817Z,24.50
2018-09-05T11:57:47.117Z,24.77
2018-09-05T12:00:17.700Z,24.80
2018-09-05T12:02:48.053Z,24.83
2018-09-05T12:05:18.425Z,24.29
2018-09-05T12:07:48.740Z,24.47
2018-09-05T12:10:19.084Z,24.73
2018-09-05T12:12:49.368Z,24.94
2018-09-05T12:15:19.782Z,25.08
2018-09-05T12:17:50.260Z,24.98
2018-09-05T12:20:20.621Z,25.28
2018-09-05T12:22:50.883Z,24.40
2018-09-05T12:26:02.909Z,24.98
2018-09-05T12:28:33.404Z,25.07
2018-09-05T12:31:03.652Z,24.90
2018-09-05T12:33:33.941Z,24.74
2018-09-05T12:36:04.343Z,24.98
2018-09-05T12:38:34.730Z,25.16
2018-09-05T12:41:05.081Z,24.90
2018-09-05T12:43:35.379Z,25.13
2018-09-05T12:46:05.758Z,25.37
2018-09-05T12:48:36.356Z,25.40
2018-09-05T12:51:06.890Z,24.94
2018-09-05T12:53:37.444Z,24.82
2018-09-05T12:56:08.056Z,24.87
2018-09-05T12:58:38.420Z,24.94
2018-09-05T13:01:08.815Z,24.80
2018-09-05T13:03:39.517Z,25.12
2018-09-05T13:06:10.088Z,25.14
2018-09-05T13:08:40.560Z,25.54
2018-09-05T13:11:10.977Z,25.91
2018-09-05T13:13:41.437Z,25.67
2018-09-05T13:16:11.888Z,26.03
2018-09-05T13:18:42.280Z,25.84
2018-09-05T13:21:12.876Z,25.42
2018-09-05T13:23:43.213Z,25.46
2018-09-05T13:26:13.703Z,25.44
2018-09-05T13:28:44.188Z,25.91
2018-09-05T13:31:14.492Z,25.65
2018-09-05T13:33:44.732Z,25.89
2018-09-05T13:36:15.115Z,25.74
2018-09-05T13:38:45.519Z,25.61
2018-09-05T13:41:16.116Z,25.41
2018-09-05T13:43:46.480Z,25.78
2018-09-05T13:46:16.855Z,25.65
2018-09-05T13:48:47.320Z,25.85
2018-09-05T13:51:17.853Z,25.78
2018-09-05T13:53:48.302Z,25.98
2018-09-05T13:56:18.768Z,25.44
2018-09-05T13:58:49.111Z,25.80
2018-09-05T14:01:19.565Z,26.01
2018-09-05T14:03:51.447Z,25.91
2018-09-05T14:06:22.031Z,25.96
2018-09-05T14:08:52.456Z,25.44
2018-09-05T14:11:22.995Z,25.63
2018-09-05T14:13:53.331Z,25.85
2018-09-05T14:16:23.725Z,25.70
2018-09-05T14:18:53.975Z,25.62
2018-09-05T14:21:24.355Z,25.48
2018-09-05T14:23:54.831Z,25.53
2018-09-05T14:26:25.244Z,25.88
2018-09-05T14:28:55.732Z,25.86
2018-09-05T14:31:26.036Z,26.08
2018-09-05T14:33:56.444Z,25.84
2018-09-05T14:36:26.848Z,25.75
2018-09-05T14:38:57.276Z,25.82
2018-09-05T14:41:27.718Z,25.50
2018-09-05T14:43:58.068Z,25.59
2018-09-05T14:46:28.476Z,25.97
2018-09-05T14:48:58.852Z,25.83
2018-09-05T14:51:29.248Z,25.76
2018-09-05T14:53:59.637Z,25.88
2018-09-05T14:56:30.048Z,25.87
2018-09-05T14:59:00.283Z,26.02
2018-09-05T15:01:30.744Z,25.87
2018-09-05T15:04:01.176Z,25.49
2018-09-05T15:06:31.697Z,25.36
2018-09-05T15:09:02.119Z,25.53
2018-09-05T15:11:32.460Z,25.79
2018-09-05T15:14:02.900Z,25.59
2018-09-05T15:16:33.526Z,25.63
2018-09-05T15:19:03.834Z,25.66
2018-09-05T15:21:34.204Z,25.60
2018-09-05T15:24:04.651Z,25.39
2018-09-05T15:26:35.048Z,25.55
2018-09-05T15:29:05.553Z,25.59
2018-09-05T15:31:35.925Z,25.57
2018-09-05T15:34:06.633Z,25.55
2018-09-05T15:36:36.978Z,25.57
2018-09-05T15:39:10.290Z,25.42
2018-09-05T15:41:41.056Z,25.26
2018-09-05T15:44:11.555Z,25.10
2018-09-05T15:46:42.104Z,25.09
2018-09-05T15:49:12.599Z,25.34
2018-09-05T15:51:42.905Z,25.23
2018-09-05T15:54:13.387Z,25.29
2018-09-05T15:56:43.760Z,25.04
2018-09-05T15:59:14.343Z,25.15
2018-09-05T16:01:44.749Z,25.19
2018-09-05T16:04:15.207Z,25.07
2018-09-05T16:06:45.473Z,25.13
2018-09-05T16:09:15.860Z,24.85
2018-09-05T16:11:46.232Z,25.10
2018-09-05T16:14:16.794Z,25.17
2018-09-05T16:16:47.425Z,25.11
2018-09-05T16:19:17.796Z,25.00
2018-09-05T16:21:48.268Z,24.97
2018-09-05T16:24:18.757Z,24.77
2018-09-05T16:26:49.330Z,24.95
2018-09-05T16:29:19.822Z,24.91
2018-09-05T16:31:50.315Z,24.81
2018-09-05T16:34:20.688Z,24.85
2018-09-05T16:36:51.159Z,24.68
2018-09-05T16:39:21.809Z,24.63
2018-09-05T16:41:52.348Z,24.65
2018-09-05T16:44:22.669Z,24.37
2018-09-05T16:46:53.150Z,24.36
2018-09-05T16:49:23.413Z,24.39
2018-09-05T16:51:53.883Z,24.37
2018-09-05T16:54:24.260Z,24.38
2018-09-05T16:56:54.772Z,24.30
2018-09-05T16:59:25.039Z,24.26
2018-09-05T17:01:55.407Z,24.26
2018-09-05T17:04:25.790Z,24.09
2018-09-05T17:06:56.381Z,24.03
2018-09-05T17:09:26.779Z,23.81
2018-09-05T17:11:57.148Z,23.59
2018-09-05T17:14:27.537Z,23.66
2018-09-05T17:16:58.086Z,23.59
2018-09-05T17:19:28.310Z,23.47
2018-09-05T17:21:58.696Z,23.37
2018-09-05T17:24:29.060Z,23.27
2018-09-05T17:26:59.633Z,23.07
2018-09-05T17:29:30.641Z,22.98
2018-09-05T17:32:01.064Z,22.93
2018-09-05T17:34:31.343Z,22.90
2018-09-05T17:37:02.036Z,22.86
2018-09-05T17:39:32.419Z,22.83
2018-09-05T17:42:02.940Z,22.54
2018-09-05T17:44:33.325Z,22.39
2018-09-05T17:47:03.559Z,22.18
2018-09-05T17:49:33.852Z,21.98
2018-09-05T17:52:04.408Z,21.85
2018-09-05T17:54:35.044Z,21.69
2018-09-05T17:57:05.727Z,21.55
2018-09-05T17:59:36.212Z,21.47
2018-09-05T18:02:06.583Z,21.36
2018-09-05T18:04:36.952Z,21.40
2018-09-05T18:07:07.629Z,21.25
2018-09-05T18:09:37.938Z,21.16
2018-09-05T18:12:08.179Z,21.19
2018-09-05T18:14:38.567Z,21.18
2018-09-05T18:17:08.939Z,21.15
2018-09-05T18:19:39.506Z,21.09
2018-09-05T18:22:10.080Z,20.99
2018-09-05T18:24:40.617Z,20.87
2018-09-05T18:27:11.044Z,20.77
2018-09-05T18:29:41.476Z,20.73
2018-09-05T18:32:11.825Z,20.67
2018-09-05T18:34:42.140Z,20.52
2018-09-05T18:37:12.621Z,20.37
2018-09-05T18:39:42.875Z,20.30
2018-09-05T18:42:13.336Z,20.16
2018-09-05T18:44:43.769Z,20.07
2018-09-05T18:47:14.256Z,20.00
2018-09-05T18:49:44.938Z,19.98
2018-09-05T18:52:15.503Z,19.91
2018-09-05T18:54:46.039Z,19.91
2018-09-05T18:57:16.381Z,19.90
2018-09-05T18:59:46.728Z,19.82
2018-09-05T19:02:17.200Z,19.75
2018-09-05T19:04:47.684Z,19.79
2018-09-05T19:07:18.183Z,19.78
2018-09-05T19:09:48.572Z,19.75
2018-09-05T19:12:18.957Z,19.80
2018-09-05T19:14:49.339Z,19.68
2018-09-05T19:17:19.808Z,19.78
2018-09-05T19:19:50.384Z,19.73
2018-09-05T19:22:21.109Z,19.74
2018-09-05T19:24:51.678Z,19.87
2018-09-05T19:27:22.096Z,19.74
2018-09-05T19:29:52.424Z,19.70
2018-09-05T19:32:22.893Z,19.55
2018-09-05T19:34:53.378Z,19.44
2018-09-05T19:37:23.767Z,19.42
2018-09-05T19:39:54.138Z,19.53
2018-09-05T19:42:24.640Z,19.58
2018-09-05T19:44:54.999Z,19.62
2018-09-05T19:47:25.485Z,19.71
2018-09-05T19:49:56.025Z,19.77
2018-09-05T19:52:26.672Z,19.76
2018-09-05T19:54:57.143Z,19.75
2018-09-05T19:57:27.676Z,19.62
2018-09-05T19:59:58.008Z,19.62
2018-09-05T20:02:28.364Z,19.59
2018-09-05T20:04:58.667Z,19.58
2018-09-05T20:07:29.017Z,19.57
2018-09-05T20:09:59.409Z,19.57
2018-09-05T20:12:29.803Z,19.46
2018-09-05T20:15:00.088Z,19.46
2018-09-05T20:17:30.517Z,19.30
2018-09-05T20:20:00.875Z,19.25
2018-09-05T20:22:31.373Z,19.22
2018-09-05T20:25:01.897Z,19.16
2018-09-05T20:27:32.107Z,19.19
2018-09-05T20:30:02.491Z,19.20
2018-09-05T20:32:32.991Z,19.07
2018-09-05T20:35:03.459Z,18.86
2018-09-05T20:37:33.837Z,18.74
2018-09-05T20:40:04.136Z,18.72
2018-09-05T20:42:34.384Z,18.85
2018-09-05T20:45:04.987Z,18.79
2018-09-05T20:47:35.737Z,18.84
2018-09-05T20:50:06.351Z,18.84
2018-09-05T20:52:36.761Z,18.77
2018-09-05T20:55:07.339Z,18.70
2018-09-05T20:57:37.719Z,18.72
2018-09-05T21:00:08.700Z,18.68
2018-09-05T21:02:39.069Z,18.59
2018-09-05T21:05:09.641Z,18.56
2018-09-05T21:07:39.943Z,18.34
2018-09-05T21:10:10.532Z,18.34
2018-09-05T21:12:41.015Z,18.23
2018-09-05T21:15:11.473Z,18.12
2018-09-05T21:17:41.876Z,18.14
2018-09-05T21:20:12.218Z,18.27
2018-09-05T21:22:42.536Z,18.15
2018-09-05T21:25:12.974Z,18.07
2018-09-05T21:27:43.448Z,18.03
2018-09-05T21:30:13.800Z,17.84
2018-09-05T21:32:44.262Z,17.70
2018-09-05T21:35:14.688Z,17.88
2018-09-05T21:37:45.124Z,18.14
2018-09-05T21:40:15.451Z,18.12
2018-09-05T21:42:45.738Z,18.07
2018-09-05T21:45:16.151Z,17.97
2018-09-05T21:47:46.529Z,17.83
2018-09-05T21:50:16.767Z,17.73
2018-09-05T21:52:47.205Z,17.77
2018-09-05T21:55:17.628Z,17.79
2018-09-05T21:57:48.131Z,17.80
2018-09-05T22:00:18.641Z,17.84
2018-09-05T22:02:48.872Z,17.78
2018-09-05T22:05:19.361Z,17.76
2018-09-05T22:07:49.773Z,17.69
2018-09-05T22:10:20.444Z,17.70
2018-09-05T22:12:51.044Z,17.61
2018-09-05T22:15:21.509Z,17.72
2018-09-05T22:17:51.863Z,17.90
2018-09-05T22:20:22.355Z,17.74
2018-09-05T22:22:52.741Z,17.76
2018-09-05T22:25:23.114Z,17.70
2018-09-05T22:27:53.541Z,17.59
2018-09-05T22:30:23.943Z,17.63
2018-09-05T22:32:54.504Z,17.58
2018-09-05T22:35:24.996Z,17.35
2018-09-05T22:37:55.472Z,17.45
2018-09-05T22:40:26.451Z,17.38
2018-09-05T22:43:13.252Z,17.18
2018-09-05T22:46:00.187Z,17.20
2018-09-05T22:51:02.035Z,17.22
2018-09-05T22:56:02.024Z,17.27
2018-09-05T23:02:58.125Z,17.21
2018-09-05T23:08:11.029Z,17.30
2018-09-05T23:10:57.856Z,17.28
2018-09-05T23:13:44.727Z,17.12
2018-09-05T23:16:32.117Z,17.14
2018-09-05T23:19:28.429Z,17.20
2018-09-05T23:21:58.839Z,17.14
2018-09-05T23:24:29.274Z,17.00
2018-09-05T23:26:59.664Z,17.16
2018-09-05T23:29:30.006Z,16.92
2018-09-05T23:32:00.416Z,16.85
2018-09-05T23:34:31.006Z,16.71
2018-09-05T23:37:01.484Z,16.53
2018-09-05T23:39:31.821Z,16.62
2018-09-05T23:42:02.341Z,16.51
2018-09-05T23:44:32.717Z,16.55
2018-09-05T23:47:03.076Z,16.68
2018-09-05T23:49:33.353Z,16.73
2018-09-05T23:52:03.800Z,16.76
2018-09-05T23:54:34.133Z,16.64
2018-09-05T23:57:04.536Z,16.68
2018-09-05T23:59:34.859Z,16.77
